Time;durP1;ratioP1;P1;durP2;ratioP2;P2;SDS_P1;SDS_P2;PMS_P1;PMS_P2;Temp;Humidity;BMP_temperature;BMP_pressure;BME280_temperature;BME280_humidity;BME280_pressure;Samples;Min_cycle;Max_cycle;Signal;HPM_P1;HPM_P2
2023/01/12 00:01:37;;;;;;;18.10;4.40;;;;;;;13.83;69.71;101372.72;4986804;28;20043;-70
2023/01/12 00:04:04;;;;;;;21.23;4.22;;;;;;;13.48;70.13;101371.75;4993405;28;20043;-67
2023/01/12 00:06:33;;;;;;;23.13;4.50;;;;;;;13.45;70.78;101366.84;4988054;28;20398;-69
2023/01/12 00:09:02;;;;;;;20.88;3.58;;;;;;;13.36;70.86;101367.91;4998248;28;20054;-68
2023/01/12 00:11:29;;;;;;;23.00;4.45;;;;;;;13.43;71.55;101366.34;4998128;28;20038;-69
2023/01/12 00:13:57;;;;;;;26.13;3.88;;;;;;;13.07;71.71;101356.50;4980533;28;20047;-68
2023/01/12 00:16:34;;;;;;;21.00;3.85;;;;;;;13.27;72.86;101342.13;4972642;28;20051;-69
2023/01/12 00:19:16;;;;;;;25.48;4.65;;;;;;;13.26;72.39;101329.47;4980254;28;20058;-68
2023/01/12 00:24:36;;;;;;;24.48;4.43;;;;;;;13.12;72.08;101326.78;4997846;28;20051;-68
2023/01/12 00:27:06;;;;;;;22.30;4.75;;;;;;;13.21;72.22;101324.88;4980457;28;20525;-68
2023/01/12 00:29:34;;;;;;;27.75;5.18;;;;;;;13.38;71.29;101319.44;4993209;28;20070;-69
2023/01/12 00:32:02;;;;;;;24.65;4.05;;;;;;;13.37;71.43;101320.56;4988616;28;20055;-68
2023/01/12 00:34:29;;;;;;;22.83;3.53;;;;;;;13.22;71.55;101323.75;4978870;28;20399;-69
2023/01/12 00:36:58;;;;;;;27.33;4.45;;;;;;;13.28;72.09;101311.41;4992565;28;20406;-69
2023/01/12 00:39:26;;;;;;;25.17;3.90;;;;;;;13.51;71.17;101324.06;4997812;28;20046;-70
2023/01/12 00:47:26;;;;;;;23.35;3.83;;;;;;;13.64;70.13;101305.72;4988302;28;20057;-69
2023/01/12 00:49:53;;;;;;;21.33;4.65;;;;;;;13.40;69.79;101302.53;4993175;28;20062;-67
2023/01/12 00:52:21;;;;;;;16.17;3.65;;;;;;;13.42;70.26;101305.78;4994281;28;20410;-60
2023/01/12 00:54:57;;;;;;;19.48;3.92;;;;;;;13.60;69.67;101279.00;4996036;28;20061;-60
2023/01/12 00:57:25;;;;;;;20.52;3.97;;;;;;;13.42;70.91;101267.84;4996543;28;20069;-59
2023/01/12 00:59:57;;;;;;;19.95;3.95;;;;;;;13.60;70.87;101263.19;4997405;28;20531;-69
2023/01/12 01:02:26;;;;;;;20.90;3.88;;;;;;;13.43;70.46;101263.97;5000735;28;20047;-68
2023/01/12 01:04:54;;;;;;;20.48;3.85;;;;;;;13.54;70.11;101267.25;4977662;28;20054;-68
2023/01/12 01:07:21;;;;;;;23.00;4.22;;;;;;;13.54;70.79;101270.84;4994141;28;20058;-58
2023/01/12 01:09:49;;;;;;;23.25;4.03;;;;;;;13.53;69.75;101285.81;4995785;28;20073;-68
2023/01/12 01:12:16;;;;;;;21.90;4.35;;;;;;;13.35;70.16;101281.31;5011339;28;20055;-69
2023/01/12 01:14:43;;;;;;;21.25;3.25;;;;;;;13.32;70.56;101279.19;4978584;28;20524;-68
2023/01/12 01:17:11;;;;;;;22.80;4.18;;;;;;;13.39;70.77;101282.31;5000468;28;20084;-69
2023/01/12 01:19:38;;;;;;;18.63;3.72;;;;;;;13.42;69.90;101281.69;4977486;28;20561;-57
2023/01/12 01:22:05;;;;;;;20.10;3.97;;;;;;;13.48;70.28;101277.66;4991990;28;20061;-68
2023/01/12 01:24:32;;;;;;;19.45;3.78;;;;;;;13.63;70.06;101272.81;4996290;28;20054;-68
2023/01/12 01:27:00;;;;;;;18.27;3.05;;;;;;;13.45;70.31;101266.41;4991310;28;20058;-68
2023/01/12 01:29:27;;;;;;;23.05;3.97;;;;;;;13.63;69.93;101270.06;4977450;28;20246;-67
2023/01/12 01:31:54;;;;;;;16.10;3.40;;;;;;;13.42;70.36;101265.06;4990548;28;20069;-68
2023/01/12 01:34:25;;;;;;;17.70;3.78;;;;;;;13.46;70.40;101263.31;4984336;28;20047;-70
2023/01/12 01:36:52;;;;;;;;;;;;;;;13.44;70.03;101259.25;4973105;28;20065;-61
2023/01/12 01:39:19;;;;;;;22.65;4.10;;;;;;;13.15;71.73;101265.28;4996479;28;19921;-68
2023/01/12 01:41:47;;;;;;;22.45;3.65;;;;;;;13.46;71.31;101266.06;5011129;28;20053;-59
2023/01/12 01:44:29;;;;;;;22.13;3.13;;;;;;;13.51;70.35;101274.22;4994701;28;20504;-59
2023/01/12 01:47:07;;;;;;;22.20;4.07;;;;;;;13.30;71.12;101275.13;4998290;28;20055;-67
2023/01/12 01:49:43;;;;;;;27.50;4.18;;;;;;;13.34;70.93;101265.88;4959948;28;20127;-70
2023/01/12 01:52:14;;;;;;;18.33;3.50;;;;;;;13.45;71.11;101256.16;5007644;28;20137;-68
2023/01/12 01:54:45;;;;;;;19.75;3.63;;;;;;;13.13;70.82;101242.66;4972404;28;20054;-58
2023/01/12 01:57:13;;;;;;;22.00;3.88;;;;;;;13.42;71.41;101248.47;4991223;28;20054;-60
2023/01/12 01:59:45;;;;;;;23.10;3.97;;;;;;;13.38;71.88;101249.44;5011237;28;20058;-59
2023/01/12 02:02:14;;;;;;;18.67;3.53;;;;;;;13.17;71.69;101253.91;4994309;28;20050;-59
2023/01/12 02:04:41;;;;;;;26.58;4.00;;;;;;;13.35;71.92;101248.13;4994637;28;20050;-58
2023/01/12 02:07:09;;;;;;;20.98;3.53;;;;;;;13.20;71.89;101244.94;4987006;28;20050;-60
2023/01/12 02:09:37;;;;;;;19.00;4.50;;;;;;;13.51;70.54;101252.09;4976038;28;20055;-65
2023/01/12 02:18:01;;;;;;;24.83;4.22;;;;;;;13.24;72.23;101257.03;4995181;28;20058;-67
2023/01/12 02:20:32;;;;;;;22.58;4.70;;;;;;;13.45;70.82;101244.25;4997398;28;20737;-68
2023/01/12 02:23:14;;;;;;;19.75;3.75;;;;;;;13.40;71.28;101239.69;4995881;28;20054;-57
2023/01/12 02:25:50;;;;;;;21.80;3.25;;;;;;;13.75;70.55;101234.25;5003018;28;20542;-59
2023/01/12 02:28:35;;;;;;;21.75;3.75;;;;;;;13.53;71.07;101224.09;4957352;29;20058;-66
2023/01/12 02:31:09;;;;;;;19.08;3.03;;;;;;;13.60;71.28;101238.28;4955410;28;20059;-70
2023/01/12 02:33:49;;;;;;;15.23;2.65;;;;;;;13.84;69.71;101227.63;4988228;28;20499;-69
2023/01/12 02:36:39;;;;;;;17.15;3.05;;;;;;;13.62;70.82;101237.97;4957540;28;20066;-67
2023/01/12 02:39:13;;;;;;;20.10;3.10;;;;;;;13.54;70.28;101229.34;4987182;28;20051;-58
2023/01/12 02:45:01;;;;;;;18.83;3.88;;;;;;;13.46;70.27;101209.91;4983193;28;20061;-58
2023/01/12 02:47:33;;;;;;;24.00;4.47;;;;;;;13.35;70.62;101197.53;4940286;29;20055;-68
2023/01/12 02:50:02;;;;;;;21.50;3.75;;;;;;;13.47;70.40;101204.06;4957235;28;20062;-69
2023/01/12 02:52:31;;;;;;;20.98;3.55;;;;;;;13.69;70.12;101196.78;4987256;28;20051;-68
2023/01/12 02:54:59;;;;;;;20.05;3.53;;;;;;;13.60;70.70;101195.97;4955338;28;20047;-68
2023/01/12 02:57:28;;;;;;;18.65;3.38;;;;;;;13.64;70.47;101183.09;4969871;28;20062;-67
2023/01/12 02:59:56;;;;;;;20.20;4.57;;;;;;;13.82;69.67;101196.66;4987861;28;20039;-68
2023/01/12 03:02:24;;;;;;;19.40;3.65;;;;;;;13.56;70.24;101173.66;4956520;28;20239;-59
2023/01/12 03:04:52;;;;;;;19.42;3.63;;;;;;;13.42;70.59;101184.03;4971070;28;20047;-58
2023/01/12 03:07:27;;;;;;;16.92;3.55;;;;;;;13.49;69.81;101174.09;4985691;28;20043;-67
2023/01/12 03:10:07;;;;;;;15.30;3.08;;;;;;;13.51;70.65;101165.50;4971484;28;20055;-67
2023/01/12 03:12:35;;;;;;;23.95;4.00;;;;;;;13.73;70.69;101157.06;4971239;28;20063;-68
2023/01/12 03:15:06;;;;;;;16.63;3.50;;;;;;;13.47;70.01;101156.22;4971102;28;20070;-68
2023/01/12 03:17:44;;;;;;;17.50;3.20;;;;;;;13.61;70.80;101162.44;4955151;28;20086;-68
2023/01/12 03:20:20;;;;;;;19.63;3.70;;;;;;;13.66;71.29;101147.59;4958225;28;20610;-68
2023/01/12 03:22:49;;;;;;;15.63;2.75;;;;;;;13.50;70.52;101150.03;4973833;28;20504;-60
2023/01/12 03:25:17;;;;;;;17.23;3.50;;;;;;;13.70;71.40;101140.28;4955448;28;20504;-69
2023/01/12 03:27:49;;;;;;;21.98;3.63;;;;;;;13.29;71.72;101148.97;4960388;29;20051;-59
2023/01/12 03:30:43;;;;;;;21.25;3.60;;;;;;;13.53;72.43;101141.06;4990615;28;20051;-57
2023/01/12 03:33:11;;;;;;;21.98;3.28;;;;;;;13.48;71.77;101146.75;4957260;29;20062;-61
2023/01/12 03:35:44;;;;;;;18.67;3.60;;;;;;;13.79;71.49;101136.38;4957847;29;20079;-57
2023/01/12 03:38:18;;;;;;;18.63;3.25;;;;;;;13.34;71.19;101138.59;4939093;29;20075;-67
2023/01/12 03:40:49;;;;;;;18.05;3.78;;;;;;;13.23;72.85;101142.78;4959301;28;20058;-59
2023/01/12 03:43:23;;;;;;;22.73;4.13;;;;;;;13.30;72.98;101137.59;4959691;28;20486;-59
2023/01/12 03:45:57;;;;;;;14.77;2.55;;;;;;;13.62;72.15;101122.53;4958192;29;20619;-60
2023/01/12 03:48:48;;;;;;;18.33;3.15;;;;;;;13.63;71.86;101137.19;4959944;28;20108;-59
2023/01/12 03:51:24;;;;;;;21.73;3.60;;;;;;;13.40;72.06;101129.00;4957018;29;20399;-67
2023/01/12 03:53:53;;;;;;;19.67;3.47;;;;;;;13.31;73.43;101111.56;4940784;29;20056;-59
2023/01/12 03:56:22;;;;;;;13.05;2.53;;;;;;;13.59;72.07;101114.88;4948343;29;20546;-69
2023/01/12 03:58:50;;;;;;;15.15;2.90;;;;;;;13.52;73.00;101112.59;4959396;28;20043;-68
2023/01/12 04:01:17;;;;;;;17.88;2.83;;;;;;;13.34;72.94;101108.16;4947722;29;20529;-68
2023/01/12 04:03:45;;;;;;;19.73;3.80;;;;;;;13.36;72.79;101108.66;4959543;28;20043;-59
2023/01/12 04:06:12;;;;;;;20.65;3.53;;;;;;;13.40;73.12;101089.44;4939350;29;20124;-59
2023/01/12 04:08:40;;;;;;;18.45;3.45;;;;;;;13.35;72.26;101084.06;4958042;29;20061;-70
2023/01/12 04:13:53;;;;;;;19.33;3.03;;;;;;;13.39;72.69;101085.03;4950823;29;20067;-59
2023/01/12 04:16:20;;;;;;;22.88;3.70;;;;;;;13.38;73.10;101075.94;4963721;28;20035;-70
2023/01/12 04:18:48;;;;;;;15.30;3.28;;;;;;;13.35;73.17;101071.03;4958097;29;20047;-68
2023/01/12 04:24:01;;;;;;;17.98;3.33;;;;;;;13.26;73.21;101073.00;4958961;28;20055;-60
2023/01/12 04:26:29;;;;;;;22.67;4.32;;;;;;;13.34;72.98;101057.53;4987767;28;20051;-58
2023/01/12 04:28:56;;;;;;;21.65;3.30;;;;;;;13.31;72.92;101053.47;4983595;28;20388;-68
2023/01/12 04:31:23;;;;;;;23.40;3.85;;;;;;;13.15;73.90;101043.19;5004394;28;20062;-68
2023/01/12 04:33:51;;;;;;;19.42;3.65;;;;;;;13.28;73.02;101048.59;4959093;28;20074;-69
2023/01/12 04:36:18;;;;;;;21.52;3.75;;;;;;;13.62;72.75;101020.09;4958077;28;20491;-66
2023/01/12 04:38:45;;;;;;;28.27;4.40;;;;;;;13.12;72.79;101027.25;4958732;29;20156;-67
2023/01/12 04:41:13;;;;;;;18.38;3.83;;;;;;;13.26;73.04;101014.09;4958546;28;20047;-68
2023/01/12 04:43:40;;;;;;;24.58;3.80;;;;;;;13.31;73.20;101034.09;4972977;28;20439;-67
2023/01/12 04:46:09;;;;;;;28.17;3.90;;;;;;;13.25;72.73;101051.19;4958126;28;20492;-68
2023/01/12 04:48:38;;;;;;;23.42;3.53;;;;;;;13.45;73.25;101054.13;4941884;29;20055;-60
2023/01/12 04:51:05;;;;;;;24.35;4.13;;;;;;;13.54;72.93;101056.91;4958407;28;20376;-59
2023/01/12 04:53:32;;;;;;;20.73;3.35;;;;;;;13.39;71.80;101044.34;4958459;29;20074;-59
2023/01/12 04:56:04;;;;;;;24.63;4.10;;;;;;;13.44;72.70;101046.97;4987877;28;20055;-61
2023/01/12 04:58:32;;;;;;;21.33;3.78;;;;;;;13.82;72.16;101046.31;4957780;29;20062;-61
2023/01/12 05:01:11;;;;;;;24.10;3.92;;;;;;;13.47;71.43;101046.34;4956917;28;20043;-64
2023/01/12 05:03:38;;;;;;;18.10;3.50;;;;;;;13.39;71.91;101022.22;4957245;28;20059;-59
2023/01/12 05:06:06;;;;;;;23.80;3.42;;;;;;;13.55;71.88;101012.31;4957886;28;20510;-59
2023/01/12 05:11:23;;;;;;;22.77;4.45;;;;;;;13.46;73.25;101024.50;4988424;28;20059;-60
2023/01/12 05:13:51;;;;;;;14.98;2.95;;;;;;;13.77;71.79;101027.09;4940504;28;20070;-58
2023/01/12 05:16:18;;;;;;;25.08;3.45;;;;;;;13.95;70.37;101015.66;4989644;28;20054;-59
2023/01/12 05:18:46;;;;;;;17.80;3.40;;;;;;;13.67;70.70;101027.44;4992289;28;20050;-57
2023/01/12 05:21:15;;;;;;;19.40;3.97;;;;;;;13.52;71.97;101020.44;4982980;28;20054;-55
2023/01/12 05:23:44;;;;;;;24.52;4.00;;;;;;;13.41;72.92;101025.47;4977269;28;20116;-58
2023/01/12 05:26:11;;;;;;;23.65;3.88;;;;;;;13.77;72.23;101027.09;4975520;28;20047;-69
2023/01/12 05:28:38;;;;;;;24.08;3.35;;;;;;;13.40;72.29;101021.09;4992281;28;20519;-67
2023/01/12 05:31:09;;;;;;;22.10;3.88;;;;;;;13.64;72.11;101011.47;4971355;28;20051;-68
2023/01/12 05:33:38;;;;;;;21.50;3.58;;;;;;;13.76;71.94;101020.75;4957957;28;20059;-68
2023/01/12 05:36:07;;;;;;;24.10;3.60;;;;;;;13.62;71.47;101031.19;4945164;28;20385;-67
2023/01/12 05:38:35;;;;;;;21.95;3.83;;;;;;;13.50;71.83;101020.78;4958352;28;20479;-58
2023/01/12 05:41:03;;;;;;;17.67;3.10;;;;;;;13.68;71.86;101020.75;4953334;28;20047;-58
2023/01/12 05:43:49;;;;;;;23.15;3.92;;;;;;;13.62;72.18;101022.88;4939321;28;20524;-57
2023/01/12 05:46:24;;;;;;;24.40;4.40;;;;;;;14.11;70.24;101032.59;4952561;28;20058;-57
2023/01/12 05:48:53;;;;;;;16.23;3.63;;;;;;;13.86;71.48;101020.41;4938274;29;20055;-62
2023/01/12 05:51:21;;;;;;;21.48;3.45;;;;;;;13.50;71.30;101015.25;4983397;28;20051;-58
2023/01/12 05:53:48;;;;;;;19.38;3.50;;;;;;;13.50;71.38;101022.72;4957614;28;20058;-68
2023/01/12 05:56:16;;;;;;;20.67;4.25;;;;;;;13.66;72.83;101034.94;4965824;28;20495;-73
2023/01/12 05:58:51;;;;;;;27.25;4.55;;;;;;;13.55;72.88;101042.75;4976088;28;20059;-68
2023/01/12 06:01:20;;;;;;;19.20;2.92;;;;;;;13.48;73.00;101039.66;4965280;28;20490;-63
2023/01/12 06:03:52;;;;;;;15.43;2.92;;;;;;;13.84;72.24;101039.31;4957009;28;20055;-69
2023/01/12 06:06:21;;;;;;;16.58;3.90;;;;;;;13.97;72.49;101031.97;4954983;28;20050;-54
2023/01/12 06:08:50;;;;;;;22.20;3.42;;;;;;;14.16;71.39;101029.63;4957447;29;20503;-69
2023/01/12 06:14:05;;;;;;;13.93;2.75;;;;;;;13.82;72.65;101022.22;4957755;29;19930;-56
2023/01/12 06:16:36;;;;;;;23.40;3.42;;;;;;;13.75;72.53;101004.47;4955256;28;20051;-59
2023/01/12 06:19:04;;;;;;;20.38;2.92;;;;;;;13.79;73.18;101024.84;4972415;28;20059;-56
2023/01/12 06:21:32;;;;;;;15.65;2.90;;;;;;;13.92;73.32;101009.97;4963077;28;20511;-61
2023/01/12 06:24:00;;;;;;;22.23;3.60;;;;;;;13.61;71.48;101009.38;4955925;29;20124;-57
2023/01/12 06:26:27;;;;;;;15.77;2.60;;;;;;;13.79;73.45;101016.53;4955133;28;20066;-69
2023/01/12 06:28:54;;;;;;;17.42;2.70;;;;;;;13.67;73.45;101022.69;4957387;29;20056;-57
2023/01/12 06:31:22;;;;;;;19.67;4.05;;;;;;;13.74;73.60;101034.09;4956322;28;20059;-59
2023/01/12 06:33:49;;;;;;;24.58;3.20;;;;;;;13.97;72.68;101026.41;4971610;28;20044;-59
2023/01/12 06:36:17;;;;;;;18.75;3.30;;;;;;;13.92;72.93;101035.72;4967551;28;20418;-59
2023/01/12 06:38:44;;;;;;;15.25;3.47;;;;;;;13.98;72.37;101034.41;4987208;28;20074;-61
2023/01/12 06:42:27;;;;;;;19.73;3.50;;;;;;;13.59;72.58;101042.91;4954542;28;20407;-68
2023/01/12 06:43:59;;;;;;;16.35;3.00;;;;;;;13.43;73.54;101037.03;4952901;29;20491;-69
2023/01/12 06:46:27;;;;;;;15.10;2.95;;;;;;;13.65;73.45;101046.34;4957835;28;20051;-69
2023/01/12 06:48:56;;;;;;;15.13;2.40;;;;;;;13.33;74.62;101065.03;4958414;28;20059;-68
2023/01/12 06:51:24;;;;;;;19.30;2.65;;;;;;;13.57;73.69;101054.31;4990364;28;20446;-58
2023/01/12 06:53:51;;;;;;;16.20;2.83;;;;;;;13.49;73.06;101057.88;4959295;28;20055;-58
2023/01/12 06:56:19;;;;;;;12.75;2.92;;;;;;;13.82;73.54;101057.41;4959497;28;20106;-55
2023/01/12 06:58:46;;;;;;;17.65;3.17;;;;;;;13.61;73.66;101057.25;4960758;29;20052;-57
2023/01/12 07:01:14;;;;;;;18.60;3.63;;;;;;;14.00;73.56;101062.59;4957989;28;20112;-59
2023/01/12 07:03:41;;;;;;;17.42;2.90;;;;;;;13.85;74.02;101065.03;4955512;29;20059;-60
2023/01/12 07:06:09;;;;;;;16.67;3.08;;;;;;;14.04;74.01;101051.66;4959197;28;20047;-58
2023/01/12 07:08:36;;;;;;;11.05;2.40;;;;;;;13.94;74.22;101054.78;4960147;28;20043;-57
2023/01/12 07:11:06;;;;;;;14.23;2.78;;;;;;;13.72;74.51;101046.66;4958548;28;20059;-56
2023/01/12 07:13:34;;;;;;;15.85;2.47;;;;;;;13.85;75.16;101046.47;4975347;28;20419;-60
2023/01/12 07:16:01;;;;;;;14.25;2.53;;;;;;;13.99;75.11;101046.28;4960032;28;20059;-59
2023/01/12 07:18:29;;;;;;;13.23;2.38;;;;;;;13.94;75.36;101041.75;4944874;29;20047;-58
2023/01/12 07:20:57;;;;;;;10.38;2.08;;;;;;;13.82;75.49;101016.69;4951249;28;20055;-57
2023/01/12 07:23:24;;;;;;;16.73;2.50;;;;;;;13.84;75.81;101031.03;4959532;29;20508;-59
2023/01/12 07:25:52;;;;;;;11.98;2.97;;;;;;;13.87;74.95;101033.13;4992265;28;20058;-60
2023/01/12 07:28:19;;;;;;;15.93;2.42;;;;;;;13.79;76.51;101047.78;4969944;28;20039;-58
2023/01/12 07:30:46;;;;;;;15.13;2.58;;;;;;;14.12;75.79;101039.78;4968042;28;20050;-57
2023/01/12 07:33:14;;;;;;;17.20;3.30;;;;;;;13.86;75.79;101039.78;4968744;28;20047;-58
2023/01/12 07:35:44;;;;;;;16.35;3.10;;;;;;;14.03;75.09;101038.97;4949053;28;20047;-59
2023/01/12 07:38:12;;;;;;;14.90;2.63;;;;;;;14.15;75.80;101034.38;4978919;28;20514;-56
2023/01/12 07:40:39;;;;;;;16.40;2.95;;;;;;;14.15;75.43;101039.09;4970408;28;20047;-58
2023/01/12 07:43:07;;;;;;;15.95;2.53;;;;;;;13.89;74.97;101038.34;4965511;28;20502;-59
2023/01/12 07:45:35;;;;;;;15.85;2.55;;;;;;;13.97;75.57;101045.81;4961288;28;20047;-57
2023/01/12 07:48:03;;;;;;;20.92;3.50;;;;;;;13.76;76.08;101042.06;4972307;28;20051;-58
2023/01/12 07:50:30;;;;;;;20.80;3.40;;;;;;;13.55;76.36;101041.91;4959545;28;20055;-58
2023/01/12 07:53:01;;;;;;;15.35;2.58;;;;;;;13.56;76.13;101027.75;4969212;28;20054;-60
2023/01/12 07:55:29;;;;;;;16.52;2.55;;;;;;;13.57;76.08;101046.00;4990964;28;20058;-59
2023/01/12 07:57:59;;;;;;;19.60;3.33;;;;;;;13.79;75.40;101042.25;4966709;28;20043;-58
2023/01/12 08:00:26;;;;;;;15.55;2.50;;;;;;;13.87;75.72;101043.38;4957574;28;20047;-58
2023/01/12 08:02:57;;;;;;;11.13;2.45;;;;;;;14.24;75.16;101037.13;4961197;28;20058;-52
2023/01/12 08:05:25;;;;;;;21.15;2.90;;;;;;;14.36;72.84;101035.34;4953999;28;20055;-60
2023/01/12 08:07:52;;;;;;;15.23;2.83;;;;;;;14.19;71.44;101037.31;4945523;28;20047;-59
2023/01/12 08:10:19;;;;;;;17.45;3.13;;;;;;;14.19;73.01;101040.88;4972594;28;20123;-60
2023/01/12 08:12:49;;;;;;;13.13;2.70;;;;;;;14.12;72.33;101046.09;4970505;28;20047;-60
2023/01/12 08:15:17;;;;;;;13.80;2.30;;;;;;;14.05;72.95;101034.72;4957556;28;20054;-59
2023/01/12 08:17:56;;;;;;;14.50;2.40;;;;;;;14.19;72.99;101040.09;4944361;28;20054;-59
2023/01/12 08:20:33;;;;;;;13.73;2.90;;;;;;;13.99;73.88;101029.69;4958134;28;20035;-60
2023/01/12 08:23:13;;;;;;;16.00;2.75;;;;;;;14.00;74.17;101026.56;4951054;28;20059;-61
2023/01/12 08:25:43;;;;;;;12.40;2.45;;;;;;;13.82;74.87;101040.78;4962867;28;20082;-57
2023/01/12 08:28:22;;;;;;;14.05;2.58;;;;;;;13.74;74.86;101039.63;4977887;28;20053;-60
2023/01/12 08:30:49;;;;;;;13.00;2.13;;;;;;;14.17;74.96;101045.13;4980587;28;20429;-61
2023/01/12 08:33:17;;;;;;;13.82;1.70;;;;;;;14.04;74.04;101046.13;4987059;28;20050;-60
2023/01/12 08:35:47;;;;;;;11.65;2.15;;;;;;;14.06;74.67;101038.31;4970474;28;20059;-61
2023/01/12 08:38:15;;;;;;;13.10;2.15;;;;;;;14.42;74.15;101050.63;4954552;28;20050;-63
2023/01/12 08:46:14;;;;;;;10.40;2.15;;;;;;;14.46;73.08;101034.16;4975694;28;20055;-60
2023/01/12 08:48:41;;;;;;;7.90;1.88;;;;;;;14.50;73.68;101038.72;4990498;28;20053;-62
2023/01/12 08:51:08;;;;;;;11.38;2.60;;;;;;;14.23;74.07;101043.81;4979161;28;20384;-61
2023/01/12 08:53:36;;;;;;;14.68;2.58;;;;;;;14.68;73.04;101044.19;4973503;28;20521;-60
2023/01/12 08:56:03;;;;;;;10.80;1.77;;;;;;;14.33;73.99;101051.81;4959076;28;20054;-59
2023/01/12 08:58:31;;;;;;;16.42;2.63;;;;;;;14.50;74.62;101044.25;4977008;28;20046;-61
2023/01/12 09:01:15;;;;;;;13.90;2.20;;;;;;;14.40;73.83;101044.59;5008787;28;20050;-61
2023/01/12 09:03:44;;;;;;;14.18;2.38;;;;;;;14.09;75.91;101048.72;4957247;28;20046;-60
2023/01/12 09:06:20;;;;;;;12.63;1.70;;;;;;;14.34;75.74;101050.66;4978333;28;20419;-59
2023/01/12 09:08:52;;;;;;;13.10;2.42;;;;;;;14.19;76.54;101056.72;4963417;28;20050;-58
2023/01/12 09:11:20;;;;;;;11.23;2.03;;;;;;;14.28;76.55;101055.56;4993401;28;20047;-63
2023/01/12 09:13:47;;;;;;;13.25;2.67;;;;;;;14.39;76.85;101047.72;4975794;28;20521;-61
2023/01/12 09:16:16;;;;;;;8.13;2.10;;;;;;;14.43;76.05;101052.28;4980345;28;20131;-61
2023/01/12 09:18:45;;;;;;;14.17;2.73;;;;;;;14.51;76.32;101048.66;4996890;28;20057;-61
2023/01/12 09:21:17;;;;;;;11.50;2.25;;;;;;;14.41;76.67;101054.56;4972031;28;20051;-61
2023/01/12 09:23:45;;;;;;;13.88;2.28;;;;;;;14.26;77.15;101046.75;4974430;28;20066;-58
2023/01/12 09:26:15;;;;;;;12.35;2.15;;;;;;;14.40;77.91;101046.56;4975528;28;20063;-60
2023/01/12 09:28:43;;;;;;;13.32;2.15;;;;;;;14.30;77.36;101052.44;4955610;28;20058;-61
2023/01/12 09:31:16;;;;;;;12.65;2.63;;;;;;;14.41;77.79;101049.00;4982660;28;20042;-61
2023/01/12 09:33:45;;;;;;;13.18;2.17;;;;;;;14.22;78.14;101053.25;4975431;28;20051;-63
2023/01/12 09:36:18;;;;;;;16.77;2.35;;;;;;;14.07;78.19;101054.59;4998554;28;20451;-61
2023/01/12 09:38:46;;;;;;;18.52;2.85;;;;;;;14.13;79.23;101063.53;4987967;28;20066;-62
2023/01/12 09:46:57;;;;;;;13.48;2.58;;;;;;;13.92;78.81;101059.81;4965412;28;20046;-62
2023/01/12 09:47:03;;;;;;;14.15;4.10;;;;;;;13.89;79.19;101057.72;4976382;28;20070;-60
2023/01/12 09:49:38;;;;;;;13.00;2.73;;;;;;;14.05;79.67;101051.31;4950677;28;20042;-62
2023/01/12 09:52:33;;;;;;;13.43;3.40;;;;;;;14.28;78.20;101047.25;4972354;28;20141;-60
2023/01/12 09:55:00;;;;;;;20.52;6.13;;;;;;;14.14;79.15;101054.13;4987352;28;20067;-62
2023/01/12 09:57:33;;;;;;;16.73;3.60;;;;;;;14.30;78.09;101052.44;4975639;28;20047;-60
2023/01/12 10:00:05;;;;;;;15.98;3.00;;;;;;;14.17;78.38;101050.69;4974588;28;20046;-60
2023/01/12 10:02:42;;;;;;;13.35;2.40;;;;;;;14.33;78.72;101051.81;4971789;28;20058;-60
2023/01/12 10:05:44;;;;;;;13.75;2.53;;;;;;;14.33;76.95;101052.59;4974137;28;20470;-58
2023/01/12 10:08:16;;;;;;;11.15;2.10;;;;;;;14.38;77.19;101049.66;4909050;28;20054;-63
2023/01/12 10:10:57;;;;;;;14.18;2.47;;;;;;;14.25;77.16;101044.28;4978050;28;20054;-62
2023/01/12 10:13:34;;;;;;;12.57;2.75;;;;;;;14.37;77.22;101053.59;4975164;28;20198;-59
2023/01/12 10:16:04;;;;;;;14.30;3.95;;;;;;;14.63;75.71;101054.31;4989217;28;20062;-69
2023/01/12 10:18:38;;;;;;;20.98;3.38;;;;;;;14.31;75.40;101041.03;4948641;28;20392;-68
2023/01/12 10:21:10;;;;;;;14.80;2.28;;;;;;;14.39;74.95;101051.31;4991324;28;20526;-68
2023/01/12 10:23:39;;;;;;;26.80;6.35;;;;;;;14.37;75.23;101050.00;4975879;28;20066;-70
2023/01/12 10:26:14;;;;;;;11.15;2.78;;;;;;;14.54;76.28;101061.84;4992841;28;20055;-68
2023/01/12 10:28:43;;;;;;;12.45;4.22;;;;;;;14.44;77.00;101061.38;4989272;28;20047;-69
2023/01/12 10:31:18;;;;;;;13.45;3.50;;;;;;;14.66;77.14;101066.72;4962524;28;20054;-68
2023/01/12 10:34:06;;;;;;;12.30;3.10;;;;;;;14.51;78.50;101064.47;4978807;28;20050;-71
2023/01/12 10:36:41;;;;;;;12.63;2.65;;;;;;;14.34;79.09;101058.97;4979482;28;20059;-70
2023/01/12 10:39:29;;;;;;;10.27;2.00;;;;;;;14.22;77.97;101043.00;4954795;28;20054;-69
2023/01/12 10:45:22;;;;;;;11.52;2.72;;;;;;;14.58;78.14;101045.34;4962355;28;20054;-70
2023/01/12 10:47:52;;;;;;;12.73;2.92;;;;;;;14.58;77.88;101037.84;4990624;28;20070;-69
2023/01/12 10:50:28;;;;;;;13.90;2.53;;;;;;;14.81;77.13;101051.44;4976386;28;20066;-71
2023/01/12 10:53:15;;;;;;;13.80;3.22;;;;;;;14.78;76.98;101052.94;4975310;28;20047;-69
2023/01/12 10:55:43;;;;;;;16.83;4.15;;;;;;;14.87;76.67;101050.13;4981380;28;20046;-69
2023/01/12 10:58:20;;;;;;;17.40;3.20;;;;;;;14.84;76.57;101036.91;4976124;28;20039;-69
2023/01/12 11:00:48;;;;;;;13.48;3.10;;;;;;;14.65;77.17;101040.94;4980256;28;20416;-70
2023/01/12 11:03:43;;;;;;;12.77;2.78;;;;;;;14.86;75.76;101045.72;4956157;28;20054;-71
2023/01/12 11:06:15;;;;;;;12.13;2.95;;;;;;;14.80;75.64;101031.25;4940058;29;20059;-70
2023/01/12 11:08:43;;;;;;;17.15;2.63;;;;;;;14.91;75.50;101024.16;4972950;28;20046;-69
2023/01/12 11:11:31;;;;;;;17.70;2.97;;;;;;;15.00;75.22;101022.16;4976942;28;20047;-71
2023/01/12 11:14:00;;;;;;;13.32;3.05;;;;;;;15.17;74.84;101013.72;4973858;28;20042;-69
2023/01/12 11:16:33;;;;;;;16.63;6.95;;;;;;;15.21;74.33;101005.53;4978426;28;20057;-71
2023/01/12 11:19:36;;;;;;;15.85;4.32;;;;;;;14.75;75.10;101008.44;4989692;28;20050;-71
2023/01/12 11:22:12;;;;;;;12.23;2.67;;;;;;;14.71;75.88;101001.91;4938576;28;20434;-69
2023/01/12 11:24:43;;;;;;;15.40;3.22;;;;;;;14.91;75.06;101010.28;4972603;28;20058;-70
2023/01/12 11:27:19;;;;;;;16.15;3.90;;;;;;;14.93;74.87;101005.22;4959348;28;20491;-71
2023/01/12 11:30:01;;;;;;;17.92;4.38;;;;;;;15.19;72.78;100986.44;4974910;28;20043;-70
2023/01/12 11:32:45;;;;;;;16.40;4.22;;;;;;;15.15;72.69;101002.13;4974098;28;20054;-71
2023/01/12 11:35:36;;;;;;;15.32;3.50;;;;;;;14.83;72.28;100990.94;4957571;28;20054;-70
2023/01/12 11:38:17;;;;;;;24.90;4.45;;;;;;;15.16;74.02;100983.53;4989198;28;20047;-68
2023/01/12 11:40:45;;;;;;;15.48;3.47;;;;;;;14.94;73.53;100990.19;4991140;28;20046;-69
2023/01/12 11:46:25;;;;;;;14.30;4.07;;;;;;;14.87;75.20;100997.44;4988911;28;20073;-70
2023/01/12 11:49:09;;;;;;;14.35;4.80;;;;;;;15.10;74.75;100991.22;4975881;28;20050;-70
2023/01/12 11:51:37;;;;;;;13.35;3.58;;;;;;;14.78;75.48;100993.91;4981710;28;20054;-69
2023/01/12 11:54:05;;;;;;;19.40;7.80;;;;;;;14.86;76.28;100993.84;4993191;28;20047;-69
2023/01/12 11:56:54;;;;;;;36.10;11.55;;;;;;;14.69;76.07;100985.63;4964574;28;20548;-69
2023/01/12 11:59:27;;;;;;;17.48;6.70;;;;;;;14.51;76.50;100984.06;4975883;28;20062;-69
2023/01/12 12:02:24;;;;;;;17.30;5.43;;;;;;;14.52;77.41;100978.19;4982303;28;20494;-69
2023/01/12 12:05:13;;;;;;;13.57;4.00;;;;;;;14.70;76.07;100983.69;4973615;28;20435;-67
2023/01/12 12:07:59;;;;;;;13.95;3.78;;;;;;;14.82;75.91;100981.78;4982181;28;20058;-68
2023/01/12 12:10:56;;;;;;;15.60;5.38;;;;;;;14.97;76.29;100981.22;5006522;28;20051;-68
2023/01/12 12:13:40;;;;;;;25.42;10.48;;;;;;;15.06;75.33;100986.72;4959869;28;20057;-70
2023/01/12 12:16:20;;;;;;;21.40;9.90;;;;;;;14.83;77.16;100969.56;4959044;28;20062;-70
2023/01/12 12:19:02;;;;;;;14.95;6.95;;;;;;;14.99;74.76;100965.06;4958254;28;20101;-69
2023/01/12 12:21:46;;;;;;;17.13;5.78;;;;;;;15.15;75.75;100959.72;4979671;28;20422;-70